• Join FlightAware (Why Join?)
  • Login
  • US Flag 
03:00PM EDT


 

Airport Tracker/Info


-or-


 

Live Flight TrackerFlight Track Log ✈ CTL18 ✈ 20-May-2013 ✈ KYIP - KBKL

Flight Track Log - Related Links

Times and Time Zones

All times are in EDT time to prevent confusion due to time zone crossing. See the CTL18 flight status page for this flight to view local times or setup timezone preferences in your user account.

Time Position Orientation Groundspeed Altitude Reporting Facility
EDT Latitude Longitude Course Direction KTS MPH feet Rate Location/Type
09:27PM 42.2261 -83.5472 234° Southwest 101 116 1,100  Level Cleveland Center
09:28PM 42.2128 -83.5717 234° Southwest 97 112 1,800 780 Climbing Cleveland Center
09:29PM 42.1853 -83.5872 203° Southwest 107 123 2,600 540 Climbing Cleveland Center
09:30PM 42.1539 -83.5997 196° South 122 140 3,000 180 Climbing Cleveland Center
09:31PM 42.1142 -83.6008 181° South 156 180 3,000  Level Cleveland Center
09:32PM 42.0711 -83.5736 155° Southeast 172 198 3,000  Level Cleveland Center
09:33PM 42.0433 -83.5192 124° Southeast 186 214 3,000 120 Level Cleveland Center
09:34PM 42.0300 -83.4653 108° East 158 182 3,300 420 Climbing Cleveland Center
09:35PM 42.0125 -83.4142 115° Southeast 155 178 3,900 540 Climbing Cleveland Center
09:36PM 41.9972 -83.3633 112° Southeast 156 180 4,400 540 Climbing Cleveland Center
09:37PM 41.9819 -83.3039 109° East 154 177 5,000 300 Climbing Cleveland Center
09:38PM 41.9644 -83.2444 112° Southeast 169 194 5,100  Climbing Cleveland Center
09:39PM 41.9431 -83.1850 116° Southeast 177 204 5,000 -60 Descending Cleveland Center
09:40PM 41.9275 -83.1314 111° Southeast 178 205 5,000  Level Cleveland Center
09:41PM 41.9078 -83.0719 114° Southeast 180 207 5,100  Climbing Cleveland Center
09:41PM 41.8981 -83.0408 113° Southeast 175 201 5,000  Descending Cleveland Center
09:43PM 41.8747 -82.9703 114° Southeast 178 205 5,100  Climbing Cleveland Center
09:44PM 41.8572 -82.9056 110° East 180 207 5,100  Level Cleveland Center
09:45PM 41.8397 -82.8436 111° Southeast 179 206 5,100  Level Cleveland Center
09:47PM 41.8153 -82.7349 107° East  Level FlightAware Approximate
09:48PM 41.7828 -82.6550 107° East 182 209 5,100  Level Cleveland Center
09:49PM 41.7608 -82.5931 115° Southeast 179 206 5,100 -300 Level Cleveland Center
09:50PM 41.7433 -82.5228 108° East 190 219 4,600 -540 Descending Cleveland Center
09:51PM 41.7236 -82.4556 111° Southeast 202 232 4,100 -480 Descending Cleveland Center
09:52PM 41.6997 -82.3825 114° Southeast 192 221 3,600 -480 Descending Cleveland Center
09:53PM 41.6842 -82.3181 108° East 189 217 3,100 -540 Descending Cleveland Center
09:54PM 41.6683 -82.2536 108° East 185 213 2,600 -480 Descending Cleveland Center
09:55PM 41.6486 -82.1894 112° Southeast 183 211 2,200 -300 Descending Cleveland Center
09:56PM 41.6306 -82.1278 111° Southeast 178 205 2,000 -60 Descending Cleveland Center
09:57PM 41.6169 -82.0664 107° East 161 185 2,100  Climbing Cleveland Center
09:58PM 41.6031 -82.0078 108° East 162 186 2,100  Level Cleveland Center
09:59PM 41.5869 -81.9517 111° Southeast 162 186 2,200 -60 Climbing Cleveland Center
10:00PM 41.5731 -81.8933 108° East 159 183 2,000 -120 Descending Cleveland Center
10:01PM 41.5611 -81.8375 106° East 162 186 2,000  Level Cleveland Center
10:02PM 41.5514 -81.7761 102° East 164 189 2,000 -300 Level Cleveland Center
10:04PM 41.5336 -81.6761 103° East 110 127 1,100 -480 Descending Cleveland Center
10:06PM 41.5167 -81.6667 108° East  Level FlightAware Approximate
10:13PM 41.5175 -81.6833 108° East  Level Estimated